KHBI

Asheboro Regional Airport

Asheboro, North Carolina, USA
METAR KHBI 261320Z AUTO 17008KT 10SM BKN010 OVC018 23/20 A3002 RMK AO2 T02250202
Observed Flight Rules
May-26 @ 13:20 UTC (14 minutes ago) Marginal Visual Flight Rules
Wind Visibility Clouds
170° at 8 knots 10 miles
  • Broken at 1,000' AGL
  • Overcast at 1,800' AGL
Temperatures Readings
Current 23°C / 73°F
Dewpoint 20°C / 68°F
Humidity 83%
Altimeter 30.02" Hg
Pressure 1017 hPa
Elevation 205
METAR KHBI 261320Z AUTO 17008KT 10SM BKN010 OVC018 23/20 A3002 RMK AO2 T02250202
Observed Flight Rules
May-26 @ 13:20 UTC
(14 minutes ago)
MVFR
Wind Visibility
170° at 8 knots 10 miles
Clouds
  • Broken at 1,000' AGL
  • Overcast at 1,800' AGL
Temperature Dewpoint
23°C / 73°F 20°C / 68°F
Humidity Altimeter Pressure
83% 30.02" Hg 1017 hPa